Mc Dougal, Arkansas
Current Conditions -  °F | °C
As of 8:15 PM on Wednesday 22 Oct 2014 (Local Time) from K4M9 Reporting Station
Clear Clear  
Wind Chill: 12°   Ceiling: Unl
Heat Index: 12°   Visibility: 10mi
Dew Point:   Wind: 5mph
Humidity: 72%   Direction: 60°ENE
Pressure: 30.2"   Gusts: NA
Location:  36.4376°N, 90.3867°W
Report Text: K4M9 230115Z AUTO 06004KT 10SM CLR 12/07 A3020 RMK AO2
Loading
Personal Weather Stations






























Interactive Weather Map
Tropical Storm Tracking
New forecast layout! Learn more

10-Day Weather Forecast

Advertisements
Track Severe Weather on mobile